createdAt,value
2022-10-18T00:01:00.334Z,15.70
2022-10-18T00:03:28.288Z,15.70
2022-10-18T00:05:56.174Z,15.80
2022-10-18T00:08:24.025Z,15.80
2022-10-18T00:10:53.373Z,15.90
2022-10-18T00:13:21.241Z,15.90
2022-10-18T00:15:50.739Z,15.90
2022-10-18T00:18:18.817Z,15.90
2022-10-18T00:20:47.192Z,15.80
2022-10-18T00:23:14.993Z,15.90
2022-10-18T00:25:42.802Z,15.80
2022-10-18T00:28:11.958Z,15.80
2022-10-18T00:30:39.819Z,15.80
2022-10-18T00:33:07.639Z,15.80
2022-10-18T00:35:36.057Z,15.80
2022-10-18T00:38:03.897Z,15.80
2022-10-18T00:40:31.713Z,15.80
2022-10-18T00:42:59.531Z,15.70
2022-10-18T00:45:28.832Z,15.70
2022-10-18T00:47:59.762Z,15.80
2022-10-18T00:50:31.458Z,15.80
2022-10-18T00:53:02.472Z,15.70
2022-10-18T00:55:32.754Z,15.70
2022-10-18T00:58:01.558Z,15.70
2022-10-18T01:00:30.927Z,15.70
2022-10-18T01:03:00.332Z,15.70
2022-10-18T01:05:28.682Z,15.70
2022-10-18T01:08:24.445Z,15.70
2022-10-18T01:11:02.689Z,15.60
2022-10-18T01:13:42.629Z,15.60
2022-10-18T01:16:21.192Z,15.50
2022-10-18T01:18:54.239Z,15.50
2022-10-18T01:21:32.304Z,15.40
2022-10-18T01:24:48.929Z,15.40
2022-10-18T01:27:32.891Z,15.30
2022-10-18T01:30:33.460Z,15.20
2022-10-18T01:33:06.205Z,15.20
2022-10-18T01:35:40.583Z,15.10
2022-10-18T01:38:13.894Z,15.10
2022-10-18T01:40:44.814Z,15.00
2022-10-18T01:43:15.526Z,15.00
2022-10-18T01:45:44.748Z,15.00
2022-10-18T01:48:13.982Z,15.00
2022-10-18T01:50:41.841Z,14.90
2022-10-18T01:53:23.154Z,14.90
2022-10-18T01:55:58.572Z,14.90
2022-10-18T01:58:31.856Z,14.80
2022-10-18T02:01:07.316Z,14.80
2022-10-18T02:03:38.288Z,14.80
2022-10-18T02:06:10.840Z,14.80
2022-10-18T02:08:43.963Z,14.80
2022-10-18T02:11:14.782Z,14.70
2022-10-18T02:13:44.506Z,14.70
2022-10-18T02:16:18.100Z,14.70
2022-10-18T02:18:51.111Z,14.70
2022-10-18T02:21:21.864Z,14.60
2022-10-18T02:23:50.088Z,14.60
2022-10-18T02:26:18.205Z,14.50
2022-10-18T02:28:46.800Z,14.50
2022-10-18T02:31:21.688Z,14.50
2022-10-18T02:33:54.142Z,14.50
2022-10-18T02:36:27.985Z,14.50
2022-10-18T02:39:00.149Z,14.40
2022-10-18T02:41:28.670Z,14.40
2022-10-18T02:43:56.543Z,14.40
2022-10-18T02:48:58.804Z,14.40
2022-10-18T02:51:26.610Z,14.40
2022-10-18T02:53:54.513Z,14.40
2022-10-18T02:56:22.340Z,14.30
2022-10-18T02:58:50.142Z,14.30
2022-10-18T03:01:18.002Z,14.20
2022-10-18T03:03:47.273Z,14.20
2022-10-18T03:06:15.096Z,14.20
2022-10-18T03:08:42.910Z,14.20
2022-10-18T03:11:10.929Z,14.10
2022-10-18T03:13:38.821Z,14.10
2022-10-18T03:16:07.057Z,14.00
2022-10-18T03:18:35.001Z,14.00
2022-10-18T03:21:06.993Z,13.90
2022-10-18T03:23:35.248Z,13.90
2022-10-18T03:26:03.068Z,13.90
2022-10-18T03:28:30.954Z,13.80
2022-10-18T03:31:02.141Z,13.80
2022-10-18T03:33:29.981Z,13.70
2022-10-18T03:35:57.839Z,13.70
2022-10-18T03:38:27.124Z,13.70
2022-10-18T03:40:54.934Z,13.70
2022-10-18T03:43:22.880Z,13.70
2022-10-18T03:45:50.749Z,13.70
2022-10-18T03:48:18.562Z,13.70
2022-10-18T03:50:46.349Z,13.70
2022-10-18T03:53:14.193Z,13.70
2022-10-18T03:55:43.596Z,13.70
2022-10-18T03:58:12.302Z,13.70
2022-10-18T04:00:40.104Z,13.70
2022-10-18T04:03:07.916Z,13.70
2022-10-18T04:05:36.582Z,13.60
2022-10-18T04:08:04.728Z,13.60
2022-10-18T04:10:32.524Z,13.60
2022-10-18T04:13:01.668Z,13.60
2022-10-18T04:15:29.493Z,13.60
2022-10-18T04:17:57.796Z,13.60
2022-10-18T04:20:25.960Z,13.60
2022-10-18T04:22:54.977Z,13.70
2022-10-18T04:25:23.218Z,13.70
2022-10-18T04:27:51.078Z,13.70
2022-10-18T04:30:20.330Z,13.80
2022-10-18T04:32:48.189Z,13.80
2022-10-18T04:35:16.172Z,13.90
2022-10-18T04:37:43.961Z,14.00
2022-10-18T04:40:12.883Z,14.00
2022-10-18T04:42:40.676Z,14.10
2022-10-18T04:45:09.504Z,14.20
2022-10-18T04:47:38.714Z,14.30
2022-10-18T04:50:07.219Z,14.30
2022-10-18T04:52:35.084Z,14.40
2022-10-18T04:55:02.913Z,14.50
2022-10-18T04:57:30.967Z,14.50
2022-10-18T04:59:58.991Z,14.60
2022-10-18T05:02:26.878Z,14.60
2022-10-18T05:04:56.025Z,14.60
2022-10-18T05:07:23.845Z,14.70
2022-10-18T05:09:51.629Z,14.70
2022-10-18T05:12:19.528Z,14.70
2022-10-18T05:14:47.325Z,14.70
2022-10-18T05:17:15.367Z,14.70
2022-10-18T05:19:43.166Z,14.70
2022-10-18T05:22:12.361Z,14.70
2022-10-18T05:24:40.164Z,14.70
2022-10-18T05:27:07.983Z,14.70
2022-10-18T05:29:35.786Z,14.70
2022-10-18T05:32:03.744Z,14.80
2022-10-18T05:34:31.971Z,14.80
2022-10-18T05:37:00.781Z,14.90
2022-10-18T05:39:29.981Z,14.90
2022-10-18T05:41:58.084Z,14.90
2022-10-18T05:44:25.889Z,15.00
2022-10-18T05:46:53.699Z,15.00
2022-10-18T05:49:21.723Z,15.00
2022-10-18T05:51:49.621Z,15.10
2022-10-18T05:54:17.693Z,15.10
2022-10-18T05:56:46.892Z,15.20
2022-10-18T05:59:14.874Z,15.20
2022-10-18T06:01:43.882Z,15.30
2022-10-18T06:04:11.822Z,15.30
2022-10-18T06:06:40.517Z,15.40
2022-10-18T06:09:09.353Z,15.40
2022-10-18T06:11:38.038Z,15.50
2022-10-18T06:14:09.276Z,15.60
2022-10-18T06:19:10.121Z,15.70
2022-10-18T06:21:37.925Z,15.80
2022-10-18T06:24:06.495Z,15.90
2022-10-18T06:26:34.317Z,15.90
2022-10-18T06:29:02.207Z,15.90
2022-10-18T06:31:31.585Z,16.00
2022-10-18T06:33:59.468Z,16.10
2022-10-18T06:36:27.445Z,16.20
2022-10-18T06:38:56.484Z,16.20
2022-10-18T06:41:24.654Z,16.30
2022-10-18T06:43:53.999Z,16.40
2022-10-18T06:46:21.786Z,16.40
2022-10-18T06:48:50.966Z,16.50
2022-10-18T06:51:19.545Z,16.60
2022-10-18T06:53:59.581Z,16.60
2022-10-18T06:56:35.224Z,16.70
2022-10-18T06:59:03.239Z,16.70
2022-10-18T07:01:31.172Z,16.70
2022-10-18T07:04:00.434Z,16.80
2022-10-18T07:06:28.327Z,16.80
2022-10-18T07:08:57.031Z,16.90
2022-10-18T07:11:26.617Z,16.90
2022-10-18T07:13:55.091Z,16.90
2022-10-18T07:16:23.239Z,17.00
2022-10-18T07:18:52.432Z,17.00
2022-10-18T07:21:23.665Z,17.10
2022-10-18T07:23:53.373Z,17.10
2022-10-18T07:26:23.760Z,17.20
2022-10-18T07:28:55.286Z,17.30
2022-10-18T07:31:23.706Z,17.40
2022-10-18T07:33:51.749Z,17.50
2022-10-18T07:36:22.177Z,17.60
2022-10-18T07:38:51.793Z,17.70
2022-10-18T07:41:20.070Z,17.70
2022-10-18T07:43:50.697Z,17.90
2022-10-18T07:46:19.253Z,18.00
2022-10-18T07:48:47.385Z,18.10
2022-10-18T07:51:15.633Z,18.20
2022-10-18T07:53:44.981Z,18.20
2022-10-18T07:56:16.896Z,18.40
2022-10-18T07:58:45.481Z,18.40
2022-10-18T08:01:14.316Z,18.50
2022-10-18T08:03:43.174Z,18.60
2022-10-18T08:06:12.334Z,18.70
2022-10-18T08:08:41.917Z,18.70
2022-10-18T08:11:13.556Z,18.90
2022-10-18T08:13:41.377Z,18.90
2022-10-18T08:16:11.035Z,19.10
2022-10-18T08:18:39.464Z,19.30
2022-10-18T08:21:09.116Z,19.40
2022-10-18T08:23:37.405Z,19.50
2022-10-18T08:26:06.764Z,19.70
2022-10-18T08:28:36.764Z,19.80
2022-10-18T08:31:05.644Z,19.90
2022-10-18T08:33:33.926Z,20.10
2022-10-18T08:36:02.913Z,20.10
2022-10-18T08:38:31.875Z,20.20
2022-10-18T08:41:01.407Z,20.30
2022-10-18T08:43:39.519Z,20.30
2022-10-18T08:46:09.381Z,20.30
2022-10-18T08:48:42.522Z,20.40
2022-10-18T08:51:19.310Z,20.40
2022-10-18T08:53:53.160Z,20.40
2022-10-18T08:56:24.119Z,20.50
2022-10-18T08:58:53.331Z,20.60
2022-10-18T09:01:34.337Z,20.60
2022-10-18T09:04:39.488Z,20.70
2022-10-18T09:07:24.070Z,20.80
2022-10-18T09:09:56.945Z,20.90
2022-10-18T09:12:44.290Z,21.00
2022-10-18T09:15:21.095Z,21.10
2022-10-18T09:18:08.649Z,21.20
2022-10-18T09:20:53.365Z,21.40
2022-10-18T09:23:22.969Z,21.60
2022-10-18T09:25:56.893Z,21.80
2022-10-18T09:28:37.300Z,22.10
2022-10-18T09:31:11.057Z,22.30
2022-10-18T09:33:53.708Z,22.60
2022-10-18T09:36:23.776Z,23.10
2022-10-18T09:38:57.238Z,23.40
2022-10-18T09:41:31.219Z,23.80
2022-10-18T09:44:02.658Z,24.20
2022-10-18T09:46:35.403Z,24.70
2022-10-18T09:49:06.840Z,25.20
2022-10-18T09:51:38.034Z,25.90
2022-10-18T09:54:17.856Z,26.60
2022-10-18T09:56:49.888Z,27.40
2022-10-18T09:59:32.581Z,28.20
2022-10-18T10:02:01.757Z,29.50
2022-10-18T10:04:29.791Z,29.60
2022-10-18T10:07:01.258Z,30.10
2022-10-18T10:09:30.946Z,30.30
2022-10-18T10:11:59.446Z,30.40
2022-10-18T10:14:30.330Z,30.40
2022-10-18T10:17:02.134Z,30.30
2022-10-18T10:19:33.586Z,30.20
2022-10-18T10:22:06.237Z,30.10
2022-10-18T10:24:47.965Z,29.90
2022-10-18T10:27:20.028Z,29.80
2022-10-18T10:30:01.557Z,30.00
2022-10-18T10:32:44.829Z,30.50
2022-10-18T10:35:35.259Z,30.90
2022-10-18T10:38:24.285Z,31.00
2022-10-18T10:40:52.289Z,31.00
2022-10-18T10:43:37.048Z,31.00
2022-10-18T10:46:09.697Z,31.00
2022-10-18T10:48:46.313Z,31.20
2022-10-18T10:51:19.211Z,31.70
2022-10-18T10:53:52.274Z,32.50
2022-10-18T10:56:25.040Z,33.70
2022-10-18T10:58:54.188Z,35.10
2022-10-18T11:01:26.168Z,36.50
2022-10-18T11:03:56.195Z,38.40
2022-10-18T11:06:38.910Z,39.30
2022-10-18T11:09:17.643Z,40.60
2022-10-18T11:11:56.232Z,41.90
2022-10-18T11:14:28.085Z,43.10
2022-10-18T11:17:06.939Z,44.10
2022-10-18T11:19:43.715Z,45.00
2022-10-18T11:22:17.505Z,45.80
2022-10-18T11:24:45.420Z,46.50
2022-10-18T11:27:20.444Z,47.30
2022-10-18T11:30:04.169Z,47.90
2022-10-18T11:32:41.733Z,48.60
2022-10-18T11:35:25.745Z,48.70
2022-10-18T11:38:12.212Z,49.00
2022-10-18T11:40:57.872Z,49.10
2022-10-18T11:43:50.510Z,49.30
2022-10-18T11:46:32.245Z,49.40
2022-10-18T11:49:20.456Z,49.60
2022-10-18T11:52:08.189Z,49.40
2022-10-18T11:54:55.948Z,49.40
2022-10-18T11:57:38.598Z,49.70
2022-10-18T12:00:18.702Z,49.90
2022-10-18T12:03:02.400Z,50.10
2022-10-18T12:05:31.925Z,50.20
2022-10-18T12:08:06.202Z,50.30
2022-10-18T12:10:46.196Z,50.30
2022-10-18T12:13:33.305Z,50.10
2022-10-18T12:16:03.546Z,49.70
2022-10-18T12:18:32.683Z,48.90
2022-10-18T12:21:01.847Z,48.00
2022-10-18T12:23:39.033Z,46.80
2022-10-18T12:26:10.993Z,45.50
2022-10-18T12:28:48.124Z,44.20
2022-10-18T12:31:23.307Z,42.80
2022-10-18T12:33:55.544Z,41.50
2022-10-18T12:36:42.220Z,40.30
2022-10-18T12:39:15.438Z,39.20
2022-10-18T12:41:48.481Z,38.20
2022-10-18T12:44:21.993Z,37.20
2022-10-18T12:46:52.261Z,36.40
2022-10-18T12:49:25.093Z,35.70
2022-10-18T12:51:54.984Z,35.00
2022-10-18T12:54:27.002Z,34.40
2022-10-18T12:56:56.438Z,33.80
2022-10-18T12:59:51.843Z,33.20
2022-10-18T13:02:31.949Z,32.70
2022-10-18T13:05:02.147Z,32.30
2022-10-18T13:07:43.093Z,31.90
2022-10-18T13:10:41.599Z,31.50
2022-10-18T13:13:40.241Z,31.10
2022-10-18T13:16:28.229Z,30.70
2022-10-18T13:18:59.460Z,30.40
2022-10-18T13:21:41.171Z,30.10
2022-10-18T13:24:26.615Z,29.90
2022-10-18T13:30:26.959Z,29.40
2022-10-18T13:32:59.694Z,29.00
2022-10-18T13:35:51.610Z,29.00
2022-10-18T13:38:40.261Z,28.80
2022-10-18T13:41:10.624Z,28.60
2022-10-18T13:44:19.315Z,28.50
2022-10-18T13:47:17.140Z,28.30
2022-10-18T13:50:32.314Z,28.10
2022-10-18T13:53:36.304Z,28.00
2022-10-18T13:56:37.725Z,27.90
2022-10-18T13:59:22.506Z,27.70
2022-10-18T14:02:05.101Z,27.60
2022-10-18T14:04:48.310Z,27.50
2022-10-18T14:07:19.061Z,27.40
2022-10-18T14:09:55.035Z,27.30
2022-10-18T14:12:31.815Z,27.30
2022-10-18T14:15:06.328Z,27.30
2022-10-18T14:17:40.928Z,27.20
2022-10-18T14:20:20.710Z,27.20
2022-10-18T14:22:54.222Z,27.10
2022-10-18T14:25:27.959Z,27.00
2022-10-18T14:28:12.902Z,26.90
2022-10-18T14:30:54.273Z,26.90
2022-10-18T14:33:31.167Z,26.80
2022-10-18T14:36:10.364Z,26.70
2022-10-18T14:38:49.116Z,26.60
2022-10-18T14:41:21.486Z,26.50
2022-10-18T14:43:49.957Z,26.40
2022-10-18T14:46:21.975Z,26.30
2022-10-18T14:48:57.326Z,26.20
2022-10-18T14:51:27.368Z,26.10
2022-10-18T14:53:55.723Z,26.00
2022-10-18T14:56:27.073Z,26.00
2022-10-18T14:58:56.071Z,25.90
2022-10-18T15:01:27.712Z,25.80
2022-10-18T15:03:58.072Z,25.80
2022-10-18T15:06:27.857Z,25.70
2022-10-18T15:08:58.113Z,25.70
2022-10-18T15:11:27.358Z,25.60
2022-10-18T15:13:57.590Z,25.50
2022-10-18T15:16:28.755Z,25.50
2022-10-18T15:19:01.948Z,25.40
2022-10-18T15:21:31.369Z,25.40
2022-10-18T15:24:20.999Z,25.30
2022-10-18T15:26:49.784Z,25.30
2022-10-18T15:29:20.438Z,25.20
2022-10-18T15:31:50.266Z,25.20
2022-10-18T15:34:21.172Z,25.10
2022-10-18T15:36:51.696Z,25.10
2022-10-18T15:39:21.261Z,25.00
2022-10-18T15:41:53.683Z,25.00
2022-10-18T15:44:27.833Z,24.90
2022-10-18T15:46:59.171Z,24.90
2022-10-18T15:49:56.224Z,24.80
2022-10-18T15:52:39.035Z,24.80
2022-10-18T15:55:56.264Z,24.70
2022-10-18T15:58:26.305Z,24.70
2022-10-18T16:00:57.076Z,24.60
2022-10-18T16:03:25.856Z,24.60
2022-10-18T16:05:59.565Z,24.50
2022-10-18T16:08:30.656Z,24.40
2022-10-18T16:10:58.779Z,24.40
2022-10-18T16:13:27.173Z,24.40
2022-10-18T16:15:56.564Z,24.30
2022-10-18T16:18:26.108Z,24.30
2022-10-18T16:20:54.384Z,24.20
2022-10-18T16:23:24.609Z,24.10
2022-10-18T16:25:53.964Z,24.10
2022-10-18T16:28:23.725Z,24.00
2022-10-18T16:30:57.660Z,24.00
2022-10-18T16:33:26.379Z,24.00
2022-10-18T16:35:54.767Z,23.90
2022-10-18T16:38:32.599Z,23.80
2022-10-18T16:41:05.124Z,23.80
2022-10-18T16:43:34.534Z,23.70
2022-10-18T16:46:03.503Z,23.70
2022-10-18T16:48:31.480Z,23.60
2022-10-18T16:50:59.649Z,23.60
2022-10-18T16:53:27.952Z,23.50
2022-10-18T16:55:58.010Z,23.50
2022-10-18T16:58:28.919Z,23.40
2022-10-18T17:00:57.381Z,23.40
2022-10-18T17:03:25.932Z,23.40
2022-10-18T17:05:54.265Z,23.30
2022-10-18T17:08:24.282Z,23.30
2022-10-18T17:10:54.172Z,23.20
2022-10-18T17:13:22.747Z,23.20
2022-10-18T17:15:52.768Z,23.20
2022-10-18T17:18:23.596Z,23.10
2022-10-18T17:20:51.539Z,23.10
2022-10-18T17:23:19.647Z,23.10
2022-10-18T17:25:59.078Z,23.10
2022-10-18T17:28:35.376Z,23.00
2022-10-18T17:31:07.554Z,23.00
2022-10-18T17:33:35.590Z,23.00
2022-10-18T17:36:03.393Z,22.90
2022-10-18T17:38:31.205Z,22.90
2022-10-18T17:40:59.020Z,22.90
2022-10-18T17:43:27.202Z,22.90
2022-10-18T17:45:56.724Z,22.80
2022-10-18T17:48:28.164Z,22.70
2022-10-18T17:50:56.108Z,22.70
2022-10-18T17:53:28.337Z,22.60
2022-10-18T17:56:02.447Z,22.60
2022-10-18T17:58:31.878Z,22.50
2022-10-18T18:01:08.531Z,22.50
2022-10-18T18:03:37.913Z,22.50
2022-10-18T18:06:17.760Z,22.50
2022-10-18T18:08:46.112Z,22.40
2022-10-18T18:11:14.057Z,22.30
2022-10-18T18:13:41.937Z,22.30
2022-10-18T18:16:18.362Z,22.20
2022-10-18T18:18:49.510Z,22.20
2022-10-18T18:21:17.572Z,22.20
2022-10-18T18:23:45.689Z,22.10
2022-10-18T18:26:13.776Z,22.10
2022-10-18T18:28:42.072Z,22.10
2022-10-18T18:31:11.784Z,22.00
2022-10-18T18:33:39.771Z,22.00
2022-10-18T18:36:10.107Z,22.00
2022-10-18T18:38:42.304Z,21.90
2022-10-18T18:41:12.373Z,21.90
2022-10-18T18:43:41.922Z,21.90
2022-10-18T18:46:10.373Z,21.90
2022-10-18T18:48:38.336Z,21.90
2022-10-18T18:51:10.047Z,21.80
2022-10-18T18:53:39.102Z,21.80
2022-10-18T18:56:09.060Z,21.80
2022-10-18T18:58:38.701Z,21.80
2022-10-18T19:01:09.052Z,21.80
2022-10-18T19:03:38.254Z,21.70
2022-10-18T19:06:09.015Z,21.70
2022-10-18T19:08:38.237Z,21.70
2022-10-18T19:11:09.149Z,21.70
2022-10-18T19:13:37.431Z,21.60
2022-10-18T19:16:27.404Z,21.60
2022-10-18T19:18:58.234Z,21.60
2022-10-18T19:21:29.853Z,21.60
2022-10-18T19:23:58.382Z,21.50
2022-10-18T19:26:29.940Z,21.50
2022-10-18T19:29:02.867Z,21.50
2022-10-18T19:31:30.810Z,21.50
2022-10-18T19:33:59.599Z,21.50
2022-10-18T19:36:29.941Z,21.40
2022-10-18T19:38:58.944Z,21.40
2022-10-18T19:41:28.361Z,21.40
2022-10-18T19:43:56.248Z,21.30
2022-10-18T19:46:24.723Z,21.30
2022-10-18T19:48:53.996Z,21.20
2022-10-18T19:51:25.510Z,21.20
2022-10-18T19:53:58.375Z,21.10
2022-10-18T19:56:27.787Z,21.10
2022-10-18T19:58:56.430Z,21.10
2022-10-18T20:01:25.011Z,21.10
2022-10-18T20:03:52.905Z,21.00
2022-10-18T20:06:20.774Z,20.90
2022-10-18T20:08:49.247Z,20.90
2022-10-18T20:11:20.832Z,20.80
2022-10-18T20:13:49.093Z,20.80
2022-10-18T20:16:19.056Z,20.70
2022-10-18T20:18:46.929Z,20.70
2022-10-18T20:21:16.735Z,20.70
2022-10-18T20:23:45.628Z,20.70
2022-10-18T20:26:18.105Z,20.70
2022-10-18T20:28:55.701Z,20.70
2022-10-18T20:31:25.179Z,20.60
2022-10-18T20:33:56.490Z,20.60
2022-10-18T20:36:24.957Z,20.60
2022-10-18T20:38:53.186Z,20.50
2022-10-18T20:41:22.464Z,20.50
2022-10-18T20:43:55.942Z,20.40
2022-10-18T20:46:24.069Z,20.40
2022-10-18T20:48:53.208Z,20.40
2022-10-18T20:51:22.450Z,20.30
2022-10-18T20:53:50.823Z,20.30
2022-10-18T20:56:21.002Z,20.20
2022-10-18T20:58:52.511Z,20.20
2022-10-18T21:01:23.623Z,20.10
2022-10-18T21:03:52.713Z,20.10
2022-10-18T21:06:23.333Z,20.10
2022-10-18T21:08:55.009Z,20.00
2022-10-18T21:11:23.505Z,19.90
2022-10-18T21:13:52.426Z,19.90
2022-10-18T21:16:21.813Z,19.80
2022-10-18T21:18:49.801Z,19.70
2022-10-18T21:21:19.358Z,19.70
2022-10-18T21:23:48.743Z,19.60
2022-10-18T21:26:18.806Z,19.60
2022-10-18T21:28:46.836Z,19.50
2022-10-18T21:31:17.299Z,19.50
2022-10-18T21:33:47.990Z,19.40
2022-10-18T21:36:16.119Z,19.40
2022-10-18T21:38:46.438Z,19.40
2022-10-18T21:41:15.630Z,19.30
2022-10-18T21:43:45.229Z,19.30
2022-10-18T21:46:14.850Z,19.30
2022-10-18T21:48:45.273Z,19.20
2022-10-18T21:51:15.740Z,19.20
2022-10-18T21:53:44.515Z,19.20
2022-10-18T21:56:13.984Z,19.10
2022-10-18T21:58:42.080Z,19.10
2022-10-18T22:01:11.192Z,19.10
2022-10-18T22:03:39.378Z,19.10
2022-10-18T22:06:12.762Z,19.10
2022-10-18T22:08:42.803Z,19.00
2022-10-18T22:11:11.265Z,19.00
2022-10-18T22:13:39.131Z,19.00
2022-10-18T22:16:08.890Z,18.90
2022-10-18T22:18:37.000Z,18.90
2022-10-18T22:21:07.824Z,18.90
2022-10-18T22:23:37.222Z,18.90
2022-10-18T22:26:08.649Z,18.90
2022-10-18T22:28:37.171Z,19.00
2022-10-18T22:31:05.280Z,19.00
2022-10-18T22:33:33.158Z,19.00
2022-10-18T22:36:00.975Z,19.00
2022-10-18T22:38:33.140Z,19.00
2022-10-18T22:41:06.629Z,18.90
2022-10-18T22:43:35.062Z,19.00
2022-10-18T22:46:03.548Z,18.90
2022-10-18T22:48:31.653Z,18.90
2022-10-18T22:50:59.735Z,18.90
2022-10-18T22:53:27.553Z,18.90
2022-10-18T22:55:55.476Z,18.90
2022-10-18T22:58:25.219Z,18.90
2022-10-18T23:01:00.360Z,18.80
2022-10-18T23:03:28.201Z,18.80
2022-10-18T23:05:56.384Z,18.80
2022-10-18T23:08:24.556Z,18.80
2022-10-18T23:10:54.585Z,18.70
2022-10-18T23:13:23.990Z,18.70
2022-10-18T23:15:52.302Z,18.70
2022-10-18T23:18:21.934Z,18.70
2022-10-18T23:20:49.719Z,18.70
2022-10-18T23:23:17.568Z,18.60
2022-10-18T23:25:46.828Z,18.70
2022-10-18T23:28:16.479Z,18.60
2022-10-18T23:30:45.677Z,18.50
2022-10-18T23:33:13.497Z,18.50
2022-10-18T23:35:41.300Z,18.50
2022-10-18T23:38:09.081Z,18.50
2022-10-18T23:40:36.880Z,18.40
2022-10-18T23:43:04.682Z,18.40
2022-10-18T23:45:32.470Z,18.40
2022-10-18T23:48:01.685Z,18.30
2022-10-18T23:50:29.484Z,18.30
2022-10-18T23:52:57.272Z,18.20
2022-10-18T23:55:25.088Z,18.20
2022-10-18T23:57:52.878Z,18.20
